FIN823 ESSA-ENZV
Flight info
| Callsign | FIN823 |
|---|---|
| Flight time | 1h 11m |
| Altitude | 38000 |
| Route | ARS N623 BEDLA P609 KSD DCT VATEX DCT IBSAT DCT IDIPI |
| Aircraft | A320/M-SDE3FGHIRWY/LB1 |
Departure
| Time | 2026-05-06 17:42 |
|---|---|
| Airport | Stockholm-Arlanda Airport (ESSA) |
Arrival
| Time | 2026-05-06 18:53 |
|---|---|
| Airport | Stavanger Airport, Sola (ENZV) |
| Time | Latitude | Longitude | Altitude | Speed | Heading |
|---|---|---|---|---|---|
| 2026-05-06 17:18 | 59.64374 | 17.92804 | 112 ft | 0 kts | 41° |
| 2026-05-06 17:33 | 59.64364 | 17.92787 | 109 ft | 3 kts | 41° |
| 2026-05-06 17:33 | 59.64349 | 17.92761 | 109 ft | 3 kts | 41° |
| 2026-05-06 17:33 | 59.64334 | 17.92735 | 108 ft | 3 kts | 41° |
| 2026-05-06 17:33 | 59.64318 | 17.92709 | 110 ft | 3 kts | 41° |
| 2026-05-06 17:34 | 59.64303 | 17.92682 | 110 ft | 3 kts | 41° |
| 2026-05-06 17:34 | 59.64294 | 17.92667 | 111 ft | 0 kts | 41° |
| 2026-05-06 17:36 | 59.64295 | 17.92667 | 111 ft | 1 kts | 32° |
| 2026-05-06 17:37 | 59.64298 | 17.92647 | 112 ft | 4 kts | 275° |
| 2026-05-06 17:37 | 59.64298 | 17.92475 | 112 ft | 17 kts | 283° |
| 2026-05-06 17:37 | 59.64349 | 17.92273 | 112 ft | 16 kts | 297° |
| 2026-05-06 17:37 | 59.64396 | 17.92095 | 114 ft | 13 kts | 297° |
| 2026-05-06 17:38 | 59.64459 | 17.91949 | 111 ft | 20 kts | 351° |
| 2026-05-06 17:38 | 59.64572 | 17.91988 | 110 ft | 14 kts | 10° |
| 2026-05-06 17:38 | 59.64686 | 17.92034 | 108 ft | 21 kts | 12° |
| 2026-05-06 17:38 | 59.64825 | 17.92082 | 106 ft | 20 kts | 11° |
| 2026-05-06 17:39 | 59.64912 | 17.92113 | 106 ft | 19 kts | 9° |
| 2026-05-06 17:39 | 59.65036 | 17.92158 | 107 ft | 17 kts | 12° |
| 2026-05-06 17:39 | 59.65181 | 17.92211 | 107 ft | 15 kts | 10° |
| 2026-05-06 17:39 | 59.65282 | 17.92248 | 106 ft | 16 kts | 9° |
| 2026-05-06 17:40 | 59.65364 | 17.92277 | 105 ft | 18 kts | 10° |
| 2026-05-06 17:40 | 59.65484 | 17.92317 | 105 ft | 17 kts | 8° |
| 2026-05-06 17:40 | 59.65594 | 17.92357 | 105 ft | 15 kts | 10° |
| 2026-05-06 17:40 | 59.65695 | 17.92393 | 105 ft | 14 kts | 10° |
| 2026-05-06 17:41 | 59.65814 | 17.92438 | 106 ft | 24 kts | 11° |
| 2026-05-06 17:41 | 59.65913 | 17.92282 | 111 ft | 17 kts | 278° |
| 2026-05-06 17:41 | 59.65914 | 17.92117 | 113 ft | 11 kts | 211° |
| 2026-05-06 17:41 | 59.65880 | 17.92101 | 114 ft | 6 kts | 191° |
| 2026-05-06 17:42 | 59.65695 | 17.92036 | 107 ft | 63 kts | 190° |
| 2026-05-06 17:42 | 59.65043 | 17.91797 | 104 ft | 127 kts | 190° |
| 2026-05-06 17:42 | 59.64091 | 17.91422 | 511 ft | 142 kts | 187° |
| 2026-05-06 17:42 | 59.63118 | 17.91065 | 1227 ft | 142 kts | 188° |
| 2026-05-06 17:43 | 59.62112 | 17.90700 | 1771 ft | 156 kts | 192° |
| 2026-05-06 17:43 | 59.61133 | 17.89499 | 2137 ft | 184 kts | 230° |
| 2026-05-06 17:43 | 59.60405 | 17.87235 | 2499 ft | 209 kts | 236° |
| 2026-05-06 17:43 | 59.59618 | 17.84700 | 3177 ft | 219 kts | 236° |
| 2026-05-06 17:44 | 59.58819 | 17.82113 | 4100 ft | 222 kts | 237° |
| 2026-05-06 17:44 | 59.58036 | 17.79365 | 4746 ft | 241 kts | 242° |
| 2026-05-06 17:44 | 59.57239 | 17.76288 | 5319 ft | 259 kts | 244° |
| 2026-05-06 17:44 | 59.56726 | 17.72856 | 6197 ft | 265 kts | 267° |
| 2026-05-06 17:45 | 59.56797 | 17.69274 | 7141 ft | 266 kts | 274° |
| 2026-05-06 17:45 | 59.56898 | 17.65608 | 8160 ft | 266 kts | 273° |
| 2026-05-06 17:45 | 59.56982 | 17.61944 | 9160 ft | 268 kts | 272° |
| 2026-05-06 17:45 | 59.57058 | 17.58250 | 10104 ft | 270 kts | 272° |
| 2026-05-06 17:46 | 59.57133 | 17.54411 | 10526 ft | 292 kts | 272° |
| 2026-05-06 17:46 | 59.57213 | 17.50329 | 10966 ft | 308 kts | 272° |
| 2026-05-06 17:46 | 59.57297 | 17.46010 | 11733 ft | 313 kts | 272° |
| 2026-05-06 17:46 | 59.57380 | 17.41689 | 12546 ft | 317 kts | 271° |
| 2026-05-06 17:47 | 59.57460 | 17.37323 | 13380 ft | 320 kts | 271° |
| 2026-05-06 17:47 | 59.57540 | 17.32905 | 14148 ft | 323 kts | 271° |
| 2026-05-06 17:47 | 59.57621 | 17.28444 | 14895 ft | 326 kts | 271° |
| 2026-05-06 17:47 | 59.57701 | 17.23962 | 15653 ft | 327 kts | 271° |
| 2026-05-06 17:48 | 59.57782 | 17.19458 | 16391 ft | 329 kts | 270° |
| 2026-05-06 17:48 | 59.57860 | 17.14980 | 17120 ft | 331 kts | 270° |
| 2026-05-06 17:48 | 59.57939 | 17.10422 | 17857 ft | 333 kts | 270° |
| 2026-05-06 17:48 | 59.58017 | 17.05818 | 18531 ft | 335 kts | 270° |
| 2026-05-06 17:49 | 59.58094 | 17.01204 | 19163 ft | 337 kts | 270° |
| 2026-05-06 17:49 | 59.58168 | 16.96552 | 19811 ft | 339 kts | 269° |
| 2026-05-06 17:49 | 59.58237 | 16.91951 | 20444 ft | 341 kts | 269° |
| 2026-05-06 17:49 | 59.58305 | 16.87253 | 21098 ft | 342 kts | 269° |
| 2026-05-06 17:50 | 59.58372 | 16.82546 | 21737 ft | 344 kts | 269° |
| 2026-05-06 17:50 | 59.58436 | 16.77820 | 22382 ft | 346 kts | 269° |
| 2026-05-06 17:50 | 59.58501 | 16.73053 | 23013 ft | 348 kts | 268° |
| 2026-05-06 17:50 | 59.58570 | 16.68268 | 23612 ft | 350 kts | 268° |
| 2026-05-06 17:51 | 59.58775 | 16.63456 | 24107 ft | 355 kts | 276° |
| 2026-05-06 17:51 | 59.59258 | 16.58655 | 24600 ft | 357 kts | 276° |
| 2026-05-06 17:51 | 59.59752 | 16.53833 | 25074 ft | 359 kts | 276° |
| 2026-05-06 17:51 | 59.60250 | 16.48987 | 25536 ft | 361 kts | 276° |
| 2026-05-06 17:52 | 59.60739 | 16.44164 | 25985 ft | 362 kts | 275° |
| 2026-05-06 17:52 | 59.61232 | 16.39226 | 26441 ft | 364 kts | 275° |
| 2026-05-06 17:52 | 59.61719 | 16.34313 | 26864 ft | 365 kts | 275° |
| 2026-05-06 17:52 | 59.62206 | 16.29366 | 27298 ft | 367 kts | 275° |
| 2026-05-06 17:53 | 59.62648 | 16.24386 | 27722 ft | 366 kts | 270° |
| 2026-05-06 17:53 | 59.62713 | 16.19463 | 28137 ft | 362 kts | 261° |
| 2026-05-06 17:53 | 59.62463 | 16.14468 | 28544 ft | 362 kts | 259° |
| 2026-05-06 17:53 | 59.62197 | 16.09515 | 28968 ft | 363 kts | 259° |
| 2026-05-06 17:54 | 59.61928 | 16.04548 | 29352 ft | 365 kts | 259° |
| 2026-05-06 17:54 | 59.61657 | 15.99617 | 29722 ft | 366 kts | 259° |
| 2026-05-06 17:54 | 59.61378 | 15.94589 | 30073 ft | 368 kts | 259° |
| 2026-05-06 17:54 | 59.61097 | 15.89538 | 30362 ft | 370 kts | 259° |
| 2026-05-06 17:55 | 59.60813 | 15.84476 | 30632 ft | 372 kts | 259° |
| 2026-05-06 17:55 | 59.60527 | 15.79385 | 30893 ft | 375 kts | 259° |
| 2026-05-06 17:55 | 59.60238 | 15.74247 | 31135 ft | 377 kts | 259° |
| 2026-05-06 17:55 | 59.59946 | 15.69088 | 31375 ft | 379 kts | 259° |
| 2026-05-06 17:56 | 59.59649 | 15.63905 | 31621 ft | 381 kts | 258° |
| 2026-05-06 17:56 | 59.59346 | 15.58699 | 31950 ft | 381 kts | 258° |
| 2026-05-06 17:56 | 59.59042 | 15.53495 | 32272 ft | 381 kts | 258° |
| 2026-05-06 17:56 | 59.58737 | 15.48302 | 32591 ft | 381 kts | 258° |
| 2026-05-06 17:57 | 59.58436 | 15.43169 | 32898 ft | 382 kts | 258° |
| 2026-05-06 17:57 | 59.58129 | 15.37962 | 33203 ft | 382 kts | 258° |
| 2026-05-06 17:57 | 59.57816 | 15.32745 | 33519 ft | 382 kts | 258° |
| 2026-05-06 17:57 | 59.57498 | 15.27533 | 33847 ft | 383 kts | 258° |
| 2026-05-06 17:58 | 59.57178 | 15.22303 | 34130 ft | 383 kts | 258° |
| 2026-05-06 17:58 | 59.56858 | 15.17079 | 34385 ft | 384 kts | 259° |
| 2026-05-06 17:58 | 59.56538 | 15.11837 | 34621 ft | 385 kts | 259° |
| 2026-05-06 17:58 | 59.56220 | 15.06671 | 34837 ft | 386 kts | 259° |
| 2026-05-06 17:59 | 59.55895 | 15.01414 | 35054 ft | 387 kts | 259° |
| 2026-05-06 17:59 | 59.55564 | 14.96131 | 35264 ft | 388 kts | 259° |
| 2026-05-06 17:59 | 59.55229 | 14.90829 | 35476 ft | 389 kts | 259° |
| 2026-05-06 17:59 | 59.54891 | 14.85545 | 35678 ft | 390 kts | 259° |
| 2026-05-06 18:00 | 59.54548 | 14.80208 | 35876 ft | 391 kts | 259° |
| 2026-05-06 18:00 | 59.54201 | 14.74878 | 36075 ft | 392 kts | 259° |
| 2026-05-06 18:00 | 59.53852 | 14.69515 | 36260 ft | 394 kts | 260° |
| 2026-05-06 18:00 | 59.53504 | 14.64164 | 36450 ft | 394 kts | 260° |
| 2026-05-06 18:01 | 59.53151 | 14.58776 | 36631 ft | 395 kts | 260° |
| 2026-05-06 18:01 | 59.52802 | 14.53485 | 36806 ft | 396 kts | 260° |
| 2026-05-06 18:01 | 59.52440 | 14.48023 | 36996 ft | 397 kts | 260° |
| 2026-05-06 18:01 | 59.52086 | 14.42688 | 37169 ft | 398 kts | 260° |
| 2026-05-06 18:02 | 59.51721 | 14.37259 | 37346 ft | 399 kts | 260° |
| 2026-05-06 18:02 | 59.51353 | 14.31844 | 37518 ft | 400 kts | 260° |
| 2026-05-06 18:02 | 59.50981 | 14.26402 | 37696 ft | 401 kts | 260° |
| 2026-05-06 18:02 | 59.50605 | 14.20950 | 37877 ft | 402 kts | 260° |
| 2026-05-06 18:03 | 59.49845 | 14.10011 | 37946 ft | 403 kts | 260° |
| 2026-05-06 18:03 | 59.49079 | 13.99074 | 37946 ft | 403 kts | 260° |
| 2026-05-06 18:04 | 59.48302 | 13.88128 | 37951 ft | 403 kts | 260° |
| 2026-05-06 18:04 | 59.47518 | 13.77196 | 37946 ft | 403 kts | 260° |
| 2026-05-06 18:05 | 59.46724 | 13.66278 | 37951 ft | 403 kts | 260° |
| 2026-05-06 18:05 | 59.45925 | 13.55438 | 37955 ft | 404 kts | 260° |
| 2026-05-06 18:06 | 59.45101 | 13.44508 | 37956 ft | 404 kts | 259° |
| 2026-05-06 18:06 | 59.44264 | 13.33566 | 37954 ft | 404 kts | 259° |
| 2026-05-06 18:07 | 59.43440 | 13.22642 | 37952 ft | 404 kts | 259° |
| 2026-05-06 18:07 | 59.42593 | 13.11712 | 37954 ft | 404 kts | 259° |
| 2026-05-06 18:08 | 59.41735 | 13.00856 | 37949 ft | 405 kts | 259° |
| 2026-05-06 18:08 | 59.40868 | 12.89927 | 37951 ft | 405 kts | 259° |
| 2026-05-06 18:09 | 59.39985 | 12.78994 | 37951 ft | 406 kts | 259° |
| 2026-05-06 18:09 | 59.39094 | 12.68033 | 37957 ft | 406 kts | 259° |
| 2026-05-06 18:10 | 59.38196 | 12.57085 | 37959 ft | 406 kts | 259° |
| 2026-05-06 18:10 | 59.37285 | 12.46137 | 37963 ft | 407 kts | 259° |
| 2026-05-06 18:11 | 59.36368 | 12.35254 | 37966 ft | 407 kts | 259° |
| 2026-05-06 18:11 | 59.35436 | 12.24290 | 37962 ft | 407 kts | 259° |
| 2026-05-06 18:12 | 59.34509 | 12.13473 | 37964 ft | 407 kts | 258° |
| 2026-05-06 18:12 | 59.33567 | 12.02594 | 37963 ft | 407 kts | 258° |
| 2026-05-06 18:13 | 59.32613 | 11.91658 | 37964 ft | 407 kts | 258° |
| 2026-05-06 18:13 | 59.31651 | 11.80733 | 37956 ft | 407 kts | 259° |
| 2026-05-06 18:14 | 59.30861 | 11.69752 | 37958 ft | 408 kts | 261° |
| 2026-05-06 18:14 | 59.30183 | 11.58728 | 37959 ft | 408 kts | 261° |
| 2026-05-06 18:15 | 59.29483 | 11.47688 | 37967 ft | 408 kts | 261° |
| 2026-05-06 18:15 | 59.28735 | 11.36742 | 38001 ft | 408 kts | 261° |
| 2026-05-06 18:16 | 59.27959 | 11.25723 | 38023 ft | 408 kts | 260° |
| 2026-05-06 18:16 | 59.27183 | 11.14700 | 38056 ft | 409 kts | 261° |
| 2026-05-06 18:17 | 59.26525 | 11.03648 | 38084 ft | 409 kts | 262° |
| 2026-05-06 18:17 | 59.25922 | 10.92563 | 38101 ft | 410 kts | 262° |
| 2026-05-06 18:18 | 59.25293 | 10.81490 | 38100 ft | 410 kts | 262° |
| 2026-05-06 18:18 | 59.24634 | 10.70479 | 38097 ft | 410 kts | 262° |
| 2026-05-06 18:19 | 59.23961 | 10.59422 | 38090 ft | 410 kts | 262° |
| 2026-05-06 18:19 | 59.23274 | 10.48318 | 37969 ft | 411 kts | 261° |
| 2026-05-06 18:20 | 59.22583 | 10.37286 | 37973 ft | 411 kts | 262° |
| 2026-05-06 18:20 | 59.21885 | 10.26188 | 37969 ft | 411 kts | 261° |
| 2026-05-06 18:21 | 59.21293 | 10.16979 | 37972 ft | 411 kts | 261° |
| 2026-05-06 18:21 | 59.20580 | 10.05908 | 37938 ft | 411 kts | 261° |
| 2026-05-06 18:22 | 59.20221 | 10.00378 | 37656 ft | 410 kts | 261° |
| 2026-05-06 18:22 | 59.19741 | 9.93078 | 37319 ft | 407 kts | 261° |
| 2026-05-06 18:22 | 59.19498 | 9.89391 | 37151 ft | 406 kts | 261° |
| 2026-05-06 18:22 | 59.19136 | 9.83939 | 36887 ft | 404 kts | 261° |
| 2026-05-06 18:23 | 59.18767 | 9.78507 | 36631 ft | 402 kts | 261° |
| 2026-05-06 18:23 | 59.18398 | 9.73110 | 36382 ft | 401 kts | 261° |
| 2026-05-06 18:23 | 59.18037 | 9.67794 | 36139 ft | 399 kts | 261° |
| 2026-05-06 18:23 | 59.17673 | 9.62438 | 35898 ft | 398 kts | 261° |
| 2026-05-06 18:24 | 59.17306 | 9.57093 | 35653 ft | 396 kts | 261° |
| 2026-05-06 18:24 | 59.16941 | 9.51781 | 35414 ft | 395 kts | 261° |
| 2026-05-06 18:24 | 59.16572 | 9.46481 | 35172 ft | 393 kts | 260° |
| 2026-05-06 18:24 | 59.16202 | 9.41224 | 34978 ft | 390 kts | 260° |
| 2026-05-06 18:25 | 59.15459 | 9.30784 | 34961 ft | 388 kts | 260° |
| 2026-05-06 18:25 | 59.14705 | 9.20343 | 34708 ft | 387 kts | 260° |
| 2026-05-06 18:26 | 59.14332 | 9.15175 | 34484 ft | 384 kts | 260° |
| 2026-05-06 18:26 | 59.13960 | 9.10050 | 34243 ft | 380 kts | 260° |
| 2026-05-06 18:26 | 59.13599 | 9.05071 | 34021 ft | 376 kts | 260° |
| 2026-05-06 18:26 | 59.13232 | 9.00041 | 33754 ft | 373 kts | 260° |
| 2026-05-06 18:27 | 59.12867 | 8.95120 | 33479 ft | 370 kts | 259° |
| 2026-05-06 18:27 | 59.12497 | 8.90173 | 33200 ft | 368 kts | 259° |
| 2026-05-06 18:27 | 59.12129 | 8.85270 | 32930 ft | 365 kts | 259° |
| 2026-05-06 18:27 | 59.11763 | 8.80400 | 32658 ft | 363 kts | 259° |
| 2026-05-06 18:28 | 59.11399 | 8.75550 | 32397 ft | 361 kts | 259° |
| 2026-05-06 18:28 | 59.11036 | 8.70711 | 32129 ft | 358 kts | 259° |
| 2026-05-06 18:28 | 59.10674 | 8.65940 | 31954 ft | 356 kts | 259° |
| 2026-05-06 18:28 | 59.10308 | 8.61174 | 31972 ft | 355 kts | 259° |
| 2026-05-06 18:29 | 59.09566 | 8.51660 | 31976 ft | 356 kts | 259° |
| 2026-05-06 18:29 | 59.08822 | 8.42169 | 31984 ft | 356 kts | 259° |
| 2026-05-06 18:30 | 59.08078 | 8.32661 | 31222 ft | 361 kts | 259° |
| 2026-05-06 18:30 | 59.07690 | 8.27769 | 30342 ft | 366 kts | 259° |
| 2026-05-06 18:30 | 59.07303 | 8.22904 | 29606 ft | 361 kts | 259° |
| 2026-05-06 18:31 | 59.06920 | 8.18112 | 28581 ft | 355 kts | 259° |
| 2026-05-06 18:31 | 59.06541 | 8.13395 | 27653 ft | 349 kts | 259° |
| 2026-05-06 18:31 | 59.06174 | 8.08856 | 27291 ft | 331 kts | 259° |
| 2026-05-06 18:31 | 59.05827 | 8.04530 | 26924 ft | 316 kts | 259° |
| 2026-05-06 18:32 | 59.05493 | 8.00405 | 26578 ft | 302 kts | 259° |
| 2026-05-06 18:32 | 59.05166 | 7.96416 | 26243 ft | 295 kts | 259° |
| 2026-05-06 18:32 | 59.04842 | 7.92491 | 25910 ft | 293 kts | 259° |
| 2026-05-06 18:32 | 59.04518 | 7.88582 | 25563 ft | 292 kts | 260° |
| 2026-05-06 18:33 | 59.04193 | 7.84695 | 25219 ft | 291 kts | 260° |
| 2026-05-06 18:33 | 59.03874 | 7.80867 | 24876 ft | 290 kts | 260° |
| 2026-05-06 18:33 | 59.03555 | 7.77010 | 24518 ft | 289 kts | 260° |
| 2026-05-06 18:33 | 59.03234 | 7.73167 | 24163 ft | 288 kts | 260° |
| 2026-05-06 18:34 | 59.02910 | 7.69331 | 23799 ft | 287 kts | 261° |
| 2026-05-06 18:34 | 59.02588 | 7.65509 | 23402 ft | 286 kts | 261° |
| 2026-05-06 18:34 | 59.02266 | 7.61713 | 23013 ft | 285 kts | 261° |
| 2026-05-06 18:34 | 59.01942 | 7.57924 | 22651 ft | 284 kts | 261° |
| 2026-05-06 18:35 | 59.01619 | 7.54143 | 22278 ft | 282 kts | 261° |
| 2026-05-06 18:35 | 59.01298 | 7.50391 | 21913 ft | 281 kts | 261° |
| 2026-05-06 18:35 | 59.00980 | 7.46658 | 21557 ft | 280 kts | 261° |
| 2026-05-06 18:35 | 59.00666 | 7.42985 | 21204 ft | 278 kts | 261° |
| 2026-05-06 18:36 | 59.00347 | 7.39283 | 20847 ft | 277 kts | 261° |
| 2026-05-06 18:36 | 59.00027 | 7.35602 | 20492 ft | 276 kts | 261° |
| 2026-05-06 18:36 | 58.99706 | 7.31938 | 20144 ft | 275 kts | 261° |
| 2026-05-06 18:36 | 58.99387 | 7.28286 | 19796 ft | 274 kts | 261° |
| 2026-05-06 18:37 | 58.99068 | 7.24640 | 19445 ft | 273 kts | 261° |
| 2026-05-06 18:37 | 58.98751 | 7.21020 | 19098 ft | 272 kts | 261° |
| 2026-05-06 18:37 | 58.98433 | 7.17410 | 18758 ft | 271 kts | 261° |
| 2026-05-06 18:37 | 58.98115 | 7.13810 | 18416 ft | 270 kts | 261° |
| 2026-05-06 18:38 | 58.97797 | 7.10224 | 18038 ft | 269 kts | 261° |
| 2026-05-06 18:38 | 58.97480 | 7.06670 | 17697 ft | 268 kts | 261° |
| 2026-05-06 18:38 | 58.97158 | 7.03117 | 17362 ft | 267 kts | 261° |
| 2026-05-06 18:38 | 58.96837 | 6.99573 | 17002 ft | 267 kts | 261° |
| 2026-05-06 18:39 | 58.96519 | 6.96058 | 16618 ft | 266 kts | 261° |
| 2026-05-06 18:39 | 58.96202 | 6.92523 | 16244 ft | 266 kts | 261° |
| 2026-05-06 18:39 | 58.95715 | 6.89064 | 15868 ft | 268 kts | 250° |
| 2026-05-06 18:40 | 58.94243 | 6.82495 | 15176 ft | 266 kts | 249° |
| 2026-05-06 18:40 | 58.93526 | 6.79190 | 14859 ft | 264 kts | 249° |
| 2026-05-06 18:40 | 58.92820 | 6.75913 | 14532 ft | 264 kts | 249° |
| 2026-05-06 18:40 | 58.92115 | 6.72634 | 14206 ft | 263 kts | 249° |
| 2026-05-06 18:41 | 58.91470 | 6.69641 | 13901 ft | 262 kts | 249° |
| 2026-05-06 18:41 | 58.90771 | 6.66411 | 13517 ft | 263 kts | 249° |
| 2026-05-06 18:41 | 58.90066 | 6.63164 | 13180 ft | 262 kts | 249° |
| 2026-05-06 18:41 | 58.89357 | 6.59910 | 12839 ft | 261 kts | 249° |
| 2026-05-06 18:42 | 58.88652 | 6.56672 | 12504 ft | 261 kts | 249° |
| 2026-05-06 18:42 | 58.87948 | 6.53455 | 12169 ft | 259 kts | 249° |
| 2026-05-06 18:42 | 58.87250 | 6.50274 | 11838 ft | 256 kts | 249° |
| 2026-05-06 18:42 | 58.86554 | 6.47115 | 11504 ft | 255 kts | 249° |
| 2026-05-06 18:43 | 58.85862 | 6.43968 | 11163 ft | 254 kts | 249° |
| 2026-05-06 18:43 | 58.85168 | 6.40818 | 10826 ft | 254 kts | 249° |
| 2026-05-06 18:43 | 58.84479 | 6.37689 | 10492 ft | 253 kts | 249° |
| 2026-05-06 18:43 | 58.83993 | 6.35488 | 10249 ft | 253 kts | 249° |
| 2026-05-06 18:44 | 58.83303 | 6.32365 | 9900 ft | 253 kts | 249° |
| 2026-05-06 18:44 | 58.82610 | 6.29236 | 9525 ft | 254 kts | 250° |
| 2026-05-06 18:44 | 58.81918 | 6.26114 | 9163 ft | 251 kts | 250° |
| 2026-05-06 18:44 | 58.81231 | 6.23024 | 8809 ft | 249 kts | 250° |
| 2026-05-06 18:45 | 58.80548 | 6.19956 | 8444 ft | 248 kts | 250° |
| 2026-05-06 18:45 | 58.79869 | 6.16911 | 8079 ft | 246 kts | 250° |
| 2026-05-06 18:45 | 58.79191 | 6.13879 | 7719 ft | 246 kts | 250° |
| 2026-05-06 18:45 | 58.78514 | 6.10850 | 7343 ft | 246 kts | 250° |
| 2026-05-06 18:46 | 58.77838 | 6.07828 | 6969 ft | 245 kts | 250° |
| 2026-05-06 18:46 | 58.77162 | 6.04815 | 6599 ft | 245 kts | 250° |
| 2026-05-06 18:46 | 58.76488 | 6.01816 | 6191 ft | 246 kts | 250° |
| 2026-05-06 18:46 | 58.75807 | 5.98791 | 5792 ft | 246 kts | 250° |
| 2026-05-06 18:47 | 58.75131 | 5.95782 | 5396 ft | 244 kts | 250° |
| 2026-05-06 18:47 | 58.74456 | 5.92789 | 5000 ft | 243 kts | 250° |
| 2026-05-06 18:47 | 58.73780 | 5.89801 | 4630 ft | 242 kts | 250° |
| 2026-05-06 18:47 | 58.73119 | 5.86876 | 4413 ft | 235 kts | 250° |
| 2026-05-06 18:48 | 58.72476 | 5.84025 | 4272 ft | 229 kts | 250° |
| 2026-05-06 18:48 | 58.71851 | 5.81266 | 4142 ft | 220 kts | 250° |
| 2026-05-06 18:48 | 58.71316 | 5.78559 | 4005 ft | 213 kts | 262° |
| 2026-05-06 18:48 | 58.71211 | 5.75796 | 3874 ft | 208 kts | 280° |
| 2026-05-06 18:49 | 58.71546 | 5.73131 | 3740 ft | 204 kts | 294° |
| 2026-05-06 18:49 | 58.72024 | 5.70558 | 3503 ft | 204 kts | 293° |
| 2026-05-06 18:49 | 58.72491 | 5.67977 | 3208 ft | 204 kts | 293° |
| 2026-05-06 18:49 | 58.73128 | 5.65588 | 2902 ft | 199 kts | 317° |
| 2026-05-06 18:50 | 58.74289 | 5.64284 | 2650 ft | 193 kts | 349° |
| 2026-05-06 18:50 | 58.75617 | 5.64128 | 2402 ft | 190 kts | 359° |
| 2026-05-06 18:50 | 58.76903 | 5.64101 | 2147 ft | 180 kts | 359° |
| 2026-05-06 18:50 | 58.78117 | 5.64069 | 1902 ft | 174 kts | 359° |
| 2026-05-06 18:51 | 58.79292 | 5.64036 | 1690 ft | 163 kts | 358° |
| 2026-05-06 18:51 | 58.80393 | 5.64003 | 1433 ft | 153 kts | 358° |
| 2026-05-06 18:51 | 58.81409 | 5.63973 | 1221 ft | 138 kts | 358° |
| 2026-05-06 18:51 | 58.82327 | 5.63946 | 1044 ft | 127 kts | 358° |
| 2026-05-06 18:52 | 58.83127 | 5.63921 | 867 ft | 123 kts | 357° |
| 2026-05-06 18:52 | 58.83972 | 5.63895 | 690 ft | 121 kts | 356° |
| 2026-05-06 18:52 | 58.84808 | 5.63865 | 525 ft | 119 kts | 356° |
| 2026-05-06 18:52 | 58.85628 | 5.63827 | 353 ft | 120 kts | 356° |
| 2026-05-06 18:53 | 58.86459 | 5.63806 | 199 ft | 119 kts | 356° |
| 2026-05-06 18:53 | 58.87283 | 5.63793 | 41 ft | 114 kts | 356° |
| 2026-05-06 18:53 | 58.87958 | 5.63773 | 32 ft | 66 kts | 359° |
| 2026-05-06 18:53 | 58.88270 | 5.63767 | 31 ft | 41 kts | 359° |
| 2026-05-06 18:54 | 58.88542 | 5.63755 | 29 ft | 37 kts | 358° |
| 2026-05-06 18:54 | 58.88705 | 5.63669 | 28 ft | 21 kts | 289° |
| 2026-05-06 18:54 | 58.88681 | 5.63421 | 32 ft | 15 kts | 208° |
| 2026-05-06 18:54 | 58.88590 | 5.63422 | 31 ft | 13 kts | 179° |
| 2026-05-06 18:55 | 58.88503 | 5.63424 | 31 ft | 12 kts | 179° |
| 2026-05-06 18:55 | 58.88384 | 5.63428 | 31 ft | 21 kts | 180° |
| 2026-05-06 18:55 | 58.88270 | 5.63345 | 32 ft | 17 kts | 233° |
| 2026-05-06 18:55 | 58.88166 | 5.63295 | 30 ft | 16 kts | 187° |
| 2026-05-06 18:56 | 58.88076 | 5.63190 | 28 ft | 9 kts | 226° |
| 2026-05-06 18:56 | 58.88087 | 5.63102 | 26 ft | 10 kts | 316° |
| 2026-05-06 18:56 | 58.88128 | 5.63025 | 25 ft | 0 kts | 315° |
| 2026-05-06 18:56 | 58.88129 | 5.63023 | 25 ft | 0 kts | 315° |
| 2026-05-06 18:57 | 58.88129 | 5.63022 | 25 ft | 0 kts | 315° |